Time;durP1;ratioP1;P1;durP2;ratioP2;P2;SDS_P1;SDS_P2;PMS_P1;PMS_P2;Temp;Humidity;BMP_temperature;BMP_pressure;BME280_temperature;BME280_humidity;BME280_pressure;Samples;Min_cycle;Max_cycle;Signal;HPM_P1;HPM_P2
2021/12/16 00:09:33;;;;;;;20.92;6.05;;;9.60;97.60;;;;;;5115352;27;40918;-55
2021/12/16 00:31:25;;;;;;;20.67;5.68;;;9.70;97.60;;;;;;5118226;27;39236;-55
2021/12/16 00:34:01;;;;;;;17.50;5.82;;;9.70;97.60;;;;;;5119864;27;37014;-55
2021/12/16 00:36:34;;;;;;;13.70;6.03;;;9.70;97.60;;;;;;5119359;27;36872;-55
2021/12/16 00:39:04;;;;;;;17.42;6.93;;;9.70;97.60;;;;;;5119196;27;37913;-55
2021/12/16 00:41:31;;;;;;;11.98;6.70;;;9.70;97.60;;;;;;5118906;27;38532;-55
2021/12/16 00:44:06;;;;;;;19.25;5.95;;;9.70;97.60;;;;;;5119490;27;37406;-55
2021/12/16 00:46:57;;;;;;;25.70;7.43;;;9.70;97.60;;;;;;5119347;27;36122;-56
2021/12/16 00:49:35;;;;;;;13.98;5.90;;;9.70;97.60;;;;;;5118547;27;36457;-55
2021/12/16 00:55:02;;;;;;;15.88;5.47;;;9.70;97.60;;;;;;5118087;27;39577;-55
2021/12/16 00:57:30;;;;;;;19.67;6.50;;;9.70;97.50;;;;;;5118556;27;36650;-55
2021/12/16 01:00:00;;;;;;;16.58;6.38;;;9.70;97.50;;;;;;5118106;27;37797;-56
2021/12/16 01:02:49;;;;;;;16.70;5.78;;;9.70;97.60;;;;;;5117719;27;37112;-55
2021/12/16 01:05:47;;;;;;;15.55;6.50;;;9.70;97.50;;;;;;5118677;27;37327;-55
2021/12/16 01:36:09;;;;;;;13.18;5.65;;;9.80;97.60;;;;;;5116242;27;39243;-55
2021/12/16 01:42:14;;;;;;;21.52;6.88;;;9.80;97.60;;;;;;5072016;27;36764;-55
2021/12/16 01:47:42;;;;;;;13.50;5.13;;;9.80;97.50;;;;;;5106721;27;38599;-55
2021/12/16 01:50:16;;;;;;;17.80;5.93;;;9.80;97.50;;;;;;5115744;27;37156;-56
2021/12/16 01:53:10;;;;;;;22.63;5.93;;;9.80;97.50;;;;;;5115758;27;36472;-55
2021/12/16 01:55:45;;;;;;;16.25;5.55;;;9.80;97.50;;;;;;5115614;27;37741;-55
2021/12/16 01:58:18;;;;;;;17.77;5.75;;;9.80;97.50;;;;;;5115143;27;40200;-56
2021/12/16 02:00:58;;;;;;;18.90;5.53;;;9.80;97.50;;;;;;5114841;27;38256;-55
2021/12/16 02:03:39;;;;;;;18.65;6.22;;;9.80;97.70;;;;;;5114694;27;36131;-55
2021/12/16 02:06:22;;;;;;;16.85;5.72;;;9.80;97.50;;;;;;5114951;27;36229;-55
2021/12/16 02:08:52;;;;;;;15.25;5.47;;;9.80;97.50;;;;;;5115293;27;37793;-55
2021/12/16 02:11:39;;;;;;;21.33;6.15;;;9.80;97.50;;;;;;5114264;27;37556;-55
2021/12/16 02:33:39;;;;;;;14.45;6.15;;;9.80;97.50;;;;;;5112960;27;40448;-55
2021/12/16 02:36:24;;;;;;;14.07;6.30;;;9.80;97.50;;;;;;5113344;27;38030;-55
2021/12/16 02:38:57;;;;;;;15.52;5.78;;;9.80;97.50;;;;;;5115331;27;38787;-55
2021/12/16 02:41:25;;;;;;;19.50;6.75;;;9.80;97.50;;;;;;5111604;27;37760;-55
2021/12/16 02:44:09;;;;;;;21.95;5.70;;;9.80;97.50;;;;;;5114585;27;37748;-55
2021/12/16 02:49:22;;;;;;;16.48;5.72;;;9.80;97.60;;;;;;5115643;27;39016;-56
2021/12/16 02:51:49;;;;;;;17.77;5.47;;;9.80;97.50;;;;;;5117280;27;38278;-55
2021/12/16 02:54:18;;;;;;;15.55;5.57;;;9.80;97.50;;;;;;5117058;27;38696;-55
2021/12/16 02:56:45;;;;;;;14.90;5.28;;;9.80;97.50;;;;;;5116968;27;35368;-55
2021/12/16 02:59:15;;;;;;;16.00;5.53;;;9.70;97.40;;;;;;5116996;27;37339;-55
2021/12/16 03:01:46;;;;;;;18.95;5.93;;;9.70;97.40;;;;;;5116259;27;36385;-55
2021/12/16 03:04:17;;;;;;;15.70;5.07;;;9.60;97.40;;;;;;5115238;27;37457;-64
2021/12/16 03:06:47;;;;;;;16.25;6.00;;;9.60;97.30;;;;;;5116408;27;36550;-63
2021/12/16 03:09:18;;;;;;;15.77;5.43;;;9.50;97.30;;;;;;5116744;27;37687;-64
2021/12/16 03:12:11;;;;;;;18.52;4.68;;;9.50;97.60;;;;;;5117186;27;36362;-64
2021/12/16 03:14:42;;;;;;;13.55;4.85;;;9.40;97.30;;;;;;5116848;27;38426;-64
2021/12/16 03:17:18;;;;;;;17.98;5.57;;;9.30;97.30;;;;;;5118433;27;37052;-64
2021/12/16 03:19:57;;;;;;;16.45;5.00;;;9.30;97.30;;;;;;5115988;27;37677;-64
2021/12/16 03:22:53;;;;;;;16.55;5.20;;;9.20;97.30;;;;;;5116643;27;36507;-64
2021/12/16 03:25:23;;;;;;;19.15;6.10;;;9.10;97.30;;;;;;5115682;27;38098;-64
2021/12/16 03:36:13;;;;;;;16.23;5.55;;;9.00;97.20;;;;;;5115077;27;38265;-55
2021/12/16 03:38:45;;;;;;;12.65;5.00;;;8.90;97.20;;;;;;5115731;27;37107;-55
2021/12/16 03:41:13;;;;;;;15.52;6.18;;;8.90;97.10;;;;;;5115946;27;36310;-55
2021/12/16 03:43:42;;;;;;;19.05;5.55;;;8.90;97.10;;;;;;5116249;27;36545;-55
2021/12/16 03:46:27;;;;;;;16.23;5.28;;;8.80;97.10;;;;;;5114280;27;38357;-55
2021/12/16 03:49:00;;;;;;;15.15;5.85;;;8.80;97.10;;;;;;5116322;27;36506;-55
2021/12/16 03:51:31;;;;;;;19.60;5.78;;;8.70;97.10;;;;;;5116285;27;38311;-55
2021/12/16 03:54:02;;;;;;;15.40;5.10;;;8.70;97.10;;;;;;5116457;27;37325;-56
2021/12/16 03:56:30;;;;;;;11.80;5.50;;;8.70;97.20;;;;;;5115395;27;37659;-55
2021/12/16 03:58:59;;;;;;;11.55;5.10;;;8.70;97.20;;;;;;5116311;27;37162;-55
2021/12/16 04:01:29;;;;;;;17.65;5.53;;;8.60;97.20;;;;;;5115047;27;37870;-55
2021/12/16 04:03:57;;;;;;;16.98;6.45;;;8.60;97.20;;;;;;5115453;27;39128;-56
2021/12/16 04:06:26;;;;;;;14.23;5.82;;;8.60;97.20;;;;;;5115941;27;37936;-55
2021/12/16 04:08:54;;;;;;;17.70;5.95;;;8.60;97.20;;;;;;5114143;27;36787;-55
2021/12/16 04:11:26;;;;;;;14.18;5.53;;;8.50;97.20;;;;;;5115254;27;37454;-55
2021/12/16 04:13:57;;;;;;;16.60;5.63;;;8.50;97.20;;;;;;5116902;27;36445;-55
2021/12/16 04:16:30;;;;;;;13.88;5.85;;;8.50;97.20;;;;;;5116433;27;36107;-55
2021/12/16 04:18:59;;;;;;;26.48;6.07;;;8.40;97.20;;;;;;5114762;27;39164;-64
2021/12/16 04:21:28;;;;;;;19.65;5.90;;;8.40;97.30;;;;;;5115860;27;40726;-64
2021/12/16 04:23:57;;;;;;;16.30;5.88;;;8.40;97.30;;;;;;5116363;27;38655;-64
2021/12/16 04:26:26;;;;;;;15.05;5.50;;;8.40;97.30;;;;;;5116108;27;36254;-63
2021/12/16 04:28:54;;;;;;;17.23;5.07;;;8.40;97.30;;;;;;5115494;27;37352;-64
2021/12/16 04:31:22;;;;;;;19.27;6.32;;;8.30;97.30;;;;;;5115272;27;36387;-64
2021/12/16 04:33:51;;;;;;;11.77;4.78;;;8.30;97.40;;;;;;5115892;27;38355;-64
2021/12/16 04:36:18;;;;;;;12.60;6.00;;;8.30;97.30;;;;;;5115063;27;37327;-64
2021/12/16 04:38:47;;;;;;;15.30;5.90;;;8.30;97.30;;;;;;5117044;27;36616;-64
2021/12/16 04:41:16;;;;;;;10.50;5.90;;;8.30;97.30;;;;;;5113861;27;37836;-63
2021/12/16 04:43:47;;;;;;;18.27;6.25;;;8.30;97.30;;;;;;5115554;27;38247;-64
2021/12/16 04:46:17;;;;;;;12.00;5.75;;;8.30;97.30;;;;;;5116148;27;37329;-63
2021/12/16 04:48:47;;;;;;;16.23;6.05;;;8.30;97.30;;;;;;5115719;27;36386;-55
2021/12/16 04:51:17;;;;;;;13.95;4.90;;;8.30;97.20;;;;;;5115345;27;37428;-55
2021/12/16 04:53:45;;;;;;;15.95;5.45;;;8.20;97.10;;;;;;5115359;27;36391;-55
2021/12/16 04:56:14;;;;;;;11.15;5.68;;;8.20;97.00;;;;;;5115851;27;36252;-55
2021/12/16 04:58:44;;;;;;;12.52;5.55;;;8.20;97.00;;;;;;5115443;27;37525;-55
2021/12/16 05:01:12;;;;;;;13.60;6.05;;;8.20;97.00;;;;;;5115695;27;38666;-64
2021/12/16 05:03:40;;;;;;;12.70;5.43;;;8.20;97.00;;;;;;5115071;27;37837;-64
2021/12/16 05:06:07;;;;;;;16.40;5.72;;;8.20;97.00;;;;;;5113782;27;36442;-64
2021/12/16 05:08:36;;;;;;;16.92;6.20;;;8.20;97.00;;;;;;5115508;27;35102;-64
2021/12/16 05:11:05;;;;;;;13.13;5.18;;;8.20;97.00;;;;;;5114816;27;38205;-64
2021/12/16 05:13:34;;;;;;;13.13;5.25;;;8.20;97.00;;;;;;5116695;27;38355;-64
2021/12/16 05:16:04;;;;;;;16.00;6.53;;;8.20;97.00;;;;;;5118403;27;37706;-63
2021/12/16 05:18:34;;;;;;;18.55;6.32;;;8.20;97.00;;;;;;5118920;27;35256;-64
2021/12/16 05:21:15;;;;;;;18.05;5.60;;;8.30;97.20;;;;;;5117465;27;37426;-63
2021/12/16 05:26:28;;;;;;;19.48;6.30;;;8.20;96.90;;;;;;5119173;27;38466;-63
2021/12/16 05:28:59;;;;;;;12.43;5.47;;;8.20;96.90;;;;;;5118483;27;36912;-63
2021/12/16 05:31:28;;;;;;;18.63;6.38;;;8.20;96.90;;;;;;5117448;27;37038;-64
2021/12/16 05:33:58;;;;;;;18.25;6.28;;;8.20;96.90;;;;;;5117786;27;37824;-64
2021/12/16 05:36:26;;;;;;;17.25;5.47;;;8.20;96.90;;;;;;5118640;27;37477;-63
2021/12/16 05:38:54;;;;;;;12.98;5.53;;;8.20;96.90;;;;;;5118773;27;37335;-63
2021/12/16 05:41:23;;;;;;;12.98;5.28;;;8.10;96.90;;;;;;5118115;27;38413;-64
2021/12/16 05:43:51;;;;;;;12.80;4.85;;;8.10;96.80;;;;;;5118992;27;39631;-63
2021/12/16 05:46:21;;;;;;;18.65;6.95;;;8.10;96.80;;;;;;5116567;27;37798;-64
2021/12/16 05:48:50;;;;;;;18.73;6.47;;;8.10;96.80;;;;;;5117946;27;37264;-63
2021/12/16 05:51:21;;;;;;;9.98;4.82;;;8.10;96.70;;;;;;5117800;27;37955;-64
2021/12/16 05:53:50;;;;;;;16.92;5.65;;;8.10;96.70;;;;;;5118420;27;38745;-64
2021/12/16 05:56:19;;;;;;;15.30;5.95;;;8.00;96.60;;;;;;5118490;27;40011;-63
2021/12/16 05:58:47;;;;;;;10.20;5.65;;;8.00;96.60;;;;;;5117753;27;38059;-63
2021/12/16 06:01:21;;;;;;;11.43;5.03;;;8.00;96.70;;;;;;5116506;27;39082;-63
2021/12/16 06:03:49;;;;;;;;;;;8.00;96.70;;;;;;5117837;27;37875;-63
2021/12/16 06:06:16;;;;;;;11.02;4.75;;;8.00;96.60;;;;;;5118167;27;38550;-63
2021/12/16 06:08:45;;;;;;;15.48;6.00;;;8.00;96.80;;;;;;5118261;27;37770;-63
2021/12/16 06:11:17;;;;;;;11.70;5.10;;;8.00;96.80;;;;;;5118303;27;37505;-64
2021/12/16 06:13:59;;;;;;;13.70;5.00;;;7.90;96.90;;;;;;5118401;27;38074;-63
2021/12/16 06:27:28;;;;;;;22.60;5.93;;;8.00;96.90;;;;;;5117035;27;39371;-63
2021/12/16 06:29:57;;;;;;;12.02;6.10;;;8.00;96.90;;;;;;5116553;27;36235;-55
2021/12/16 06:32:26;;;;;;;13.45;5.88;;;8.00;97.00;;;;;;5117486;27;36081;-55
2021/12/16 06:34:53;;;;;;;12.52;5.43;;;8.00;97.00;;;;;;5116517;27;36452;-54
2021/12/16 06:37:21;;;;;;;12.98;5.25;;;8.00;97.00;;;;;;5115457;27;37455;-55
2021/12/16 06:39:49;;;;;;;13.23;5.65;;;8.00;96.90;;;;;;5117085;27;36466;-54
2021/12/16 06:42:16;;;;;;;14.32;5.65;;;8.00;96.80;;;;;;5117003;27;37834;-55
2021/12/16 06:44:50;;;;;;;15.52;6.07;;;8.00;96.90;;;;;;5117920;27;37529;-55
2021/12/16 06:47:23;;;;;;;16.10;5.35;;;8.00;96.90;;;;;;5116978;27;37991;-55
2021/12/16 06:49:53;;;;;;;15.80;6.55;;;7.90;96.80;;;;;;5117436;27;36431;-55
2021/12/16 06:52:26;;;;;;;12.45;5.63;;;8.00;96.80;;;;;;5116713;27;38341;-55
2021/12/16 06:55:04;;;;;;;13.43;6.18;;;7.90;96.90;;;;;;5116388;27;37976;-55
2021/12/16 06:57:40;;;;;;;17.02;6.40;;;7.90;96.90;;;;;;5115052;27;37473;-55
2021/12/16 07:00:14;;;;;;;16.90;6.10;;;7.90;96.90;;;;;;5116119;27;36185;-55
2021/12/16 07:02:56;;;;;;;14.82;5.82;;;7.90;96.80;;;;;;5114418;27;37172;-55
2021/12/16 07:05:26;;;;;;;14.25;5.50;;;7.90;96.90;;;;;;5115631;27;37545;-55
2021/12/16 07:07:54;;;;;;;12.40;5.30;;;7.90;96.80;;;;;;5115069;27;38928;-55
2021/12/16 07:10:22;;;;;;;16.67;6.40;;;7.90;96.90;;;;;;5116165;27;35350;-55
2021/12/16 07:12:50;;;;;;;16.10;5.65;;;7.90;96.90;;;;;;5116809;27;36318;-55
2021/12/16 07:15:21;;;;;;;11.93;5.78;;;7.90;96.90;;;;;;5117069;27;36532;-55
2021/12/16 07:17:51;;;;;;;13.60;5.50;;;7.90;96.80;;;;;;5116874;27;37468;-54
2021/12/16 07:20:22;;;;;;;12.93;5.72;;;7.90;96.70;;;;;;5116559;27;37172;-55
2021/12/16 07:22:50;;;;;;;14.27;6.47;;;7.90;96.60;;;;;;5115839;27;37513;-55
2021/12/16 07:25:17;;;;;;;16.13;5.65;;;7.80;96.60;;;;;;5117384;27;37335;-55
2021/12/16 07:27:45;;;;;;;17.80;5.75;;;7.90;96.60;;;;;;5116942;27;37546;-55
2021/12/16 07:30:15;;;;;;;12.00;5.85;;;7.80;96.60;;;;;;5116159;27;36370;-54
2021/12/16 07:32:43;;;;;;;13.73;5.55;;;7.80;96.60;;;;;;5116199;27;37412;-56
2021/12/16 07:35:18;;;;;;;13.07;6.15;;;7.80;96.70;;;;;;5115042;27;38818;-56
2021/12/16 07:37:46;;;;;;;18.17;6.85;;;7.90;96.70;;;;;;5115371;27;37803;-56
2021/12/16 07:40:17;;;;;;;19.77;6.85;;;7.80;96.70;;;;;;5114515;27;36694;-56
2021/12/16 07:42:48;;;;;;;14.30;6.63;;;7.90;96.90;;;;;;5115833;27;38961;-56
2021/12/16 07:45:18;;;;;;;13.25;5.85;;;7.90;96.90;;;;;;5116392;27;37454;-57
2021/12/16 07:47:46;;;;;;;13.25;5.75;;;7.90;96.90;;;;;;5116707;27;36077;-56
2021/12/16 07:50:16;;;;;;;12.82;6.70;;;8.00;97.00;;;;;;5115022;27;35265;-56
2021/12/16 07:52:43;;;;;;;15.63;5.80;;;8.00;97.00;;;;;;5116814;27;38747;-56
2021/12/16 07:55:12;;;;;;;20.10;6.68;;;8.00;97.10;;;;;;5115799;27;39561;-56
2021/12/16 07:57:42;;;;;;;16.83;6.53;;;8.10;97.20;;;;;;5116700;27;39217;-56
2021/12/16 08:00:14;;;;;;;16.42;7.43;;;8.10;97.30;;;;;;5116426;27;36956;-56
2021/12/16 08:02:42;;;;;;;17.75;8.13;;;8.20;97.30;;;;;;5115392;27;37804;-56
2021/12/16 08:05:10;;;;;;;15.63;6.57;;;8.20;97.40;;;;;;5114380;27;37614;-56
2021/12/16 08:07:40;;;;;;;14.50;6.18;;;8.30;97.40;;;;;;5115002;27;37677;-56
2021/12/16 08:10:11;;;;;;;16.10;6.65;;;8.30;97.40;;;;;;5116140;27;35271;-56
2021/12/16 08:12:39;;;;;;;19.45;6.78;;;8.30;97.40;;;;;;5115650;27;37969;-56
2021/12/16 08:15:08;;;;;;;16.48;6.82;;;8.30;97.50;;;;;;5115470;27;37604;-56
2021/12/16 08:17:35;;;;;;;12.73;6.53;;;8.40;97.50;;;;;;5115397;27;37467;-56
2021/12/16 08:20:04;;;;;;;17.52;6.65;;;8.40;97.50;;;;;;5113659;27;36916;-56
2021/12/16 08:22:31;;;;;;;16.30;7.13;;;8.40;97.50;;;;;;5115246;27;38099;-56
2021/12/16 08:25:00;;;;;;;18.90;7.47;;;8.50;97.50;;;;;;5115307;27;41259;-56
2021/12/16 08:27:28;;;;;;;17.08;7.03;;;8.50;97.50;;;;;;5115963;27;37914;-56
2021/12/16 08:29:55;;;;;;;16.88;7.95;;;8.50;97.60;;;;;;5115929;27;36664;-56
2021/12/16 08:32:23;;;;;;;19.90;7.07;;;8.60;97.60;;;;;;5114211;27;39469;-56
2021/12/16 08:34:51;;;;;;;19.02;8.63;;;8.70;97.60;;;;;;5115386;27;38620;-56
2021/12/16 08:37:24;;;;;;;17.63;7.30;;;8.60;97.50;;;;;;5114731;27;36030;-56
2021/12/16 08:39:52;;;;;;;19.45;8.10;;;8.70;97.50;;;;;;5115603;27;37433;-56
2021/12/16 08:42:21;;;;;;;20.10;7.78;;;8.70;97.50;;;;;;5115384;27;38601;-56
2021/12/16 08:44:48;;;;;;;14.27;7.05;;;8.80;97.60;;;;;;5114898;27;37731;-63
2021/12/16 08:47:18;;;;;;;22.13;9.13;;;8.90;97.50;;;;;;5116707;27;38239;-64
2021/12/16 08:49:46;;;;;;;18.10;8.13;;;8.90;97.40;;;;;;5118810;27;37196;-64
2021/12/16 08:52:20;;;;;;;25.92;10.05;;;9.00;97.30;;;;;;5118808;27;39547;-64
2021/12/16 08:54:50;;;;;;;14.63;8.52;;;9.00;97.10;;;;;;5119405;27;38594;-64
2021/12/16 08:57:18;;;;;;;16.42;7.68;;;9.00;97.10;;;;;;5119310;27;40468;-64
2021/12/16 08:59:48;;;;;;;19.88;8.45;;;9.00;97.10;;;;;;5118857;27;36492;-64
2021/12/16 09:02:17;;;;;;;14.68;7.38;;;9.00;97.10;;;;;;5117365;27;36331;-64
2021/12/16 09:04:44;;;;;;;20.27;8.38;;;9.00;97.10;;;;;;5118449;27;38324;-63
2021/12/16 09:07:13;;;;;;;19.90;8.90;;;9.00;97.10;;;;;;5118331;27;36242;-56
2021/12/16 09:09:43;;;;;;;23.17;9.57;;;9.00;97.10;;;;;;5118883;27;36301;-56
2021/12/16 09:12:37;;;;;;;20.60;8.77;;;8.90;97.20;;;;;;5118647;27;37469;-56
2021/12/16 09:15:06;;;;;;;17.65;8.57;;;8.90;97.30;;;;;;5118307;27;38284;-56
2021/12/16 09:17:34;;;;;;;18.17;9.20;;;8.90;97.30;;;;;;5118857;27;38709;-56
2021/12/16 09:20:04;;;;;;;20.23;8.75;;;8.80;97.60;;;;;;5119505;27;35360;-56
2021/12/16 09:22:31;;;;;;;29.40;10.07;;;8.80;97.40;;;;;;5117292;27;38557;-56
2021/12/16 09:24:58;;;;;;;34.10;12.43;;;8.80;97.40;;;;;;5117997;27;36591;-57
2021/12/16 09:27:26;;;;;;;23.98;10.23;;;8.90;97.50;;;;;;5118700;27;37857;-56
2021/12/16 09:29:54;;;;;;;35.92;11.02;;;8.80;97.50;;;;;;5117480;27;36701;-56
2021/12/16 09:32:28;;;;;;;29.45;10.80;;;8.80;97.60;;;;;;5117537;27;38883;-56
2021/12/16 09:34:55;;;;;;;29.90;10.35;;;8.80;97.70;;;;;;5117219;27;37462;-56
2021/12/16 09:37:23;;;;;;;38.92;11.35;;;8.80;97.80;;;;;;5117774;27;38795;-56
2021/12/16 09:39:50;;;;;;;37.85;12.00;;;8.80;97.90;;;;;;5118600;27;36876;-57
2021/12/16 09:42:18;;;;;;;32.50;11.15;;;8.90;97.90;;;;;;5119031;27;37411;-56
2021/12/16 09:44:45;;;;;;;30.83;11.20;;;8.90;98.00;;;;;;5116193;27;37544;-56
2021/12/16 09:47:15;;;;;;;47.33;11.98;;;8.90;98.00;;;;;;5117006;27;38185;-64
2021/12/16 09:49:44;;;;;;;58.38;12.32;;;8.90;98.10;;;;;;5117398;27;37477;-64
2021/12/16 09:52:12;;;;;;;65.05;12.98;;;9.00;98.20;;;;;;5119271;27;37618;-64
2021/12/16 09:54:41;;;;;;;63.05;11.60;;;9.00;98.40;;;;;;5117627;27;37831;-64
2021/12/16 09:57:09;;;;;;;67.35;13.48;;;9.00;98.30;;;;;;5117646;27;38095;-56
2021/12/16 09:59:37;;;;;;;59.63;11.80;;;9.00;98.30;;;;;;5117817;27;36927;-56
2021/12/16 10:02:11;;;;;;;57.63;12.27;;;9.00;98.30;;;;;;5115118;27;37632;-56
2021/12/16 10:04:38;;;;;;;;;;;9.00;98.40;;;;;;5118737;27;38697;-56
2021/12/16 10:07:13;;;;;;;62.25;10.63;;;9.00;98.60;;;;;;5118345;27;37265;-56
2021/12/16 10:09:41;;;;;;;50.17;11.43;;;9.00;98.50;;;;;;5117119;27;36705;-56
2021/12/16 10:12:13;;;;;;;47.92;10.65;;;9.00;98.50;;;;;;5118688;27;37648;-56
2021/12/16 10:17:32;;;;;;;51.53;11.23;;;9.10;98.60;;;;;;5099549;27;38941;-56
2021/12/16 10:20:05;;;;;;;54.05;11.32;;;9.20;98.70;;;;;;5118052;27;38315;-56
2021/12/16 10:22:39;;;;;;;52.40;10.97;;;9.20;98.70;;;;;;5118001;27;36661;-56
2021/12/16 10:25:28;;;;;;;34.50;10.23;;;9.30;98.70;;;;;;5117129;27;37866;-57
2021/12/16 10:28:05;;;;;;;45.45;10.82;;;9.30;98.70;;;;;;5116831;27;37227;-56
2021/12/16 10:30:43;;;;;;;29.45;10.25;;;9.30;98.60;;;;;;5117123;27;37513;-56
2021/12/16 10:33:16;;;;;;;40.20;11.45;;;9.30;98.60;;;;;;5117741;27;36198;-57
2021/12/16 10:35:47;;;;;;;62.67;12.35;;;9.40;98.60;;;;;;5116714;27;38834;-56
2021/12/16 10:38:18;;;;;;;77.80;12.65;;;9.30;98.60;;;;;;5116806;27;37470;-56
2021/12/16 10:40:49;;;;;;;44.20;12.18;;;9.40;98.60;;;;;;5116898;27;37548;-57
2021/12/16 10:43:24;;;;;;;52.80;12.82;;;9.40;98.60;;;;;;5116083;27;37633;-57
2021/12/16 10:45:57;;;;;;;29.75;11.25;;;9.40;98.60;;;;;;5116829;27;38799;-57
2021/12/16 10:48:30;;;;;;;46.63;11.98;;;9.40;98.60;;;;;;5117576;27;36174;-57
2021/12/16 10:51:21;;;;;;;48.22;12.38;;;9.40;98.60;;;;;;5116615;27;36935;-57
2021/12/16 10:53:59;;;;;;;42.85;11.73;;;9.50;98.70;;;;;;5115749;27;38546;-57
2021/12/16 10:56:30;;;;;;;73.70;12.88;;;9.50;98.70;;;;;;5118070;27;36424;-57
2021/12/16 10:59:00;;;;;;;31.15;11.40;;;9.40;98.70;;;;;;5117383;27;37595;-57
2021/12/16 11:01:53;;;;;;;42.13;12.30;;;9.40;98.70;;;;;;5116629;27;36929;-57
2021/12/16 11:04:25;;;;;;;38.53;11.13;;;9.40;98.80;;;;;;5113642;27;38578;-57
2021/12/16 11:06:55;;;;;;;37.55;11.35;;;9.50;98.80;;;;;;5116077;27;37781;-57
2021/12/16 11:09:38;;;;;;;36.83;12.32;;;9.50;98.80;;;;;;5116432;27;37931;-56
2021/12/16 11:12:12;;;;;;;33.40;10.85;;;9.50;98.90;;;;;;5117074;27;37613;-57
2021/12/16 11:14:41;;;;;;;31.52;10.90;;;9.50;98.90;;;;;;5115681;27;37711;-57
2021/12/16 11:17:11;;;;;;;46.25;12.98;;;9.60;98.90;;;;;;5116796;27;37875;-57
2021/12/16 11:19:41;;;;;;;30.85;10.35;;;9.50;98.90;;;;;;5117230;27;37681;-56
2021/12/16 11:22:10;;;;;;;46.42;13.63;;;9.50;98.90;;;;;;5115391;27;39253;-57
2021/12/16 11:24:38;;;;;;;42.97;12.35;;;9.60;99.00;;;;;;5116068;27;37128;-56
2021/12/16 11:27:26;;;;;;;20.77;10.70;;;9.60;98.90;;;;;;5115690;27;36543;-56
2021/12/16 11:29:54;;;;;;;39.80;11.50;;;9.60;99.00;;;;;;5115767;27;37740;-56
2021/12/16 11:32:42;;;;;;;42.58;12.13;;;9.60;99.00;;;;;;5113786;27;36569;-57
2021/12/16 11:35:32;;;;;;;25.73;11.10;;;9.70;99.00;;;;;;5116024;27;37915;-57
2021/12/16 11:38:04;;;;;;;49.60;11.73;;;9.60;99.10;;;;;;5115488;27;37652;-57
2021/12/16 11:41:00;;;;;;;34.85;11.88;;;9.60;99.00;;;;;;5114191;27;20089;-56
2021/12/16 11:43:37;;;;;;;25.77;11.50;;;9.60;99.10;;;;;;5115528;27;36421;-57
2021/12/16 11:46:07;;;;;;;21.70;10.90;;;9.70;99.10;;;;;;5113880;27;37641;-57
2021/12/16 11:48:40;;;;;;;46.38;12.50;;;9.70;99.10;;;;;;5114875;27;38378;-56
2021/12/16 11:51:11;;;;;;;32.47;11.07;;;9.70;99.20;;;;;;5113620;27;38494;-56
2021/12/16 11:53:43;;;;;;;31.77;11.02;;;9.70;99.10;;;;;;5114917;27;37804;-56
2021/12/16 11:56:13;;;;;;;38.95;11.30;;;9.70;99.10;;;;;;5114564;27;37923;-57
2021/12/16 11:58:43;;;;;;;40.97;11.90;;;9.80;99.10;;;;;;5115488;27;36496;-56
2021/12/16 12:01:19;;;;;;;26.55;12.20;;;9.80;99.20;;;;;;5114983;27;38378;-57
2021/12/16 12:03:47;;;;;;;20.77;12.07;;;9.80;99.20;;;;;;5114838;27;38186;-57
2021/12/16 12:06:27;;;;;;;28.50;11.80;;;9.90;99.20;;;;;;5115228;27;37700;-57
2021/12/16 12:08:57;;;;;;;24.42;11.43;;;9.90;99.30;;;;;;5115765;27;36588;-57
2021/12/16 12:11:29;;;;;;;34.50;13.40;;;9.90;99.20;;;;;;5115685;27;37976;-57
2021/12/16 12:14:00;;;;;;;23.10;11.30;;;9.90;99.20;;;;;;5114641;27;37915;-57
2021/12/16 12:16:33;;;;;;;24.52;12.55;;;9.90;99.20;;;;;;5115112;27;37351;-57
2021/12/16 12:19:08;;;;;;;25.63;12.52;;;9.90;99.20;;;;;;5114921;27;37331;-56
2021/12/16 12:21:38;;;;;;;22.95;12.60;;;9.90;99.20;;;;;;5114625;27;39764;-56
2021/12/16 12:24:09;;;;;;;23.25;11.70;;;9.90;99.20;;;;;;5119162;27;36679;-56
2021/12/16 12:26:41;;;;;;;29.90;13.38;;;10.00;99.20;;;;;;5118159;27;37750;-56
2021/12/16 12:29:12;;;;;;;22.45;11.75;;;10.00;99.20;;;;;;5117818;27;37697;-56
2021/12/16 12:31:44;;;;;;;26.58;11.73;;;9.90;99.20;;;;;;5117810;27;38524;-57
2021/12/16 12:34:13;;;;;;;29.83;12.80;;;10.00;99.30;;;;;;5118346;27;36885;-57
2021/12/16 12:36:41;;;;;;;25.08;11.73;;;10.00;99.30;;;;;;5118990;27;38286;-57
2021/12/16 12:39:11;;;;;;;24.85;12.60;;;10.00;99.30;;;;;;5118658;27;37796;-57
2021/12/16 12:41:40;;;;;;;33.20;12.35;;;10.00;99.30;;;;;;5118489;27;36114;-56
2021/12/16 12:44:08;;;;;;;32.65;12.23;;;10.00;99.30;;;;;;5118392;27;36903;-56
2021/12/16 12:46:38;;;;;;;23.05;12.18;;;10.00;99.20;;;;;;5118594;27;36254;-56
2021/12/16 12:49:09;;;;;;;26.50;13.05;;;10.10;99.30;;;;;;5119896;27;37724;-56
2021/12/16 12:51:40;;;;;;;25.80;13.35;;;10.10;99.30;;;;;;5119175;27;37436;-56
2021/12/16 12:54:24;;;;;;;22.67;12.07;;;10.10;99.30;;;;;;5119647;27;37435;-56
2021/12/16 12:56:56;;;;;;;22.58;12.35;;;10.10;99.30;;;;;;5118334;27;37773;-56
2021/12/16 12:59:34;;;;;;;26.55;13.95;;;10.20;99.30;;;;;;5117111;27;39066;-56
2021/12/16 13:02:02;;;;;;;24.58;11.90;;;10.20;99.30;;;;;;5116111;27;37394;-56
2021/12/16 13:04:32;;;;;;;25.02;12.77;;;10.20;99.30;;;;;;5116701;27;36842;-56
2021/12/16 13:07:04;;;;;;;24.38;12.60;;;10.20;99.30;;;;;;5118325;27;37504;-56
2021/12/16 13:09:41;;;;;;;30.05;14.63;;;10.20;99.30;;;;;;5117965;27;36421;-57
2021/12/16 13:12:37;;;;;;;28.67;13.15;;;10.20;99.30;;;;;;5119489;27;37233;-56
2021/12/16 13:15:33;;;;;;;29.38;14.05;;;10.20;99.20;;;;;;5118132;27;35758;-56
2021/12/16 13:24:06;;;;;;;31.25;15.13;;;10.20;99.30;;;;;;5119140;27;38254;-57
2021/12/16 13:26:40;;;;;;;28.63;13.13;;;10.20;99.40;;;;;;5116772;27;37889;-57
2021/12/16 13:29:27;;;;;;;38.70;14.63;;;10.20;99.30;;;;;;5117730;27;36419;-56
2021/12/16 13:32:07;;;;;;;35.33;15.02;;;10.20;99.30;;;;;;5117455;27;38188;-57
2021/12/16 13:34:42;;;;;;;28.02;14.07;;;10.20;99.40;;;;;;5116027;27;37292;-56
2021/12/16 13:37:20;;;;;;;27.10;12.57;;;10.20;99.40;;;;;;5118020;27;36738;-56
2021/12/16 13:39:50;;;;;;;22.05;11.73;;;10.20;99.40;;;;;;5118253;27;37315;-57
2021/12/16 13:42:18;;;;;;;27.20;12.57;;;10.20;99.40;;;;;;5118828;27;36430;-57
2021/12/16 13:44:58;;;;;;;25.70;11.85;;;10.20;99.40;;;;;;5117632;27;39975;-57
2021/12/16 14:02:56;;;;;;;22.77;8.93;;;10.20;99.30;;;;;;5116901;27;39296;-57
2021/12/16 14:05:41;;;;;;;22.15;9.13;;;10.10;99.30;;;;;;5117019;27;36740;-56
2021/12/16 14:08:11;;;;;;;24.10;9.35;;;10.20;99.30;;;;;;5118578;27;37584;-57
2021/12/16 14:10:54;;;;;;;20.38;8.60;;;10.10;99.30;;;;;;5118251;27;36586;-56
2021/12/16 14:16:34;;;;;;;26.00;10.27;;;10.10;99.20;;;;;;5118207;27;37742;-56
2021/12/16 14:36:46;;;;;;;23.73;9.98;;;10.10;99.20;;;;;;5154504;27;20978;-55
2021/12/16 14:42:08;;;;;;;21.15;9.52;;;10.00;99.10;;;;;;5090657;27;37251;-57
2021/12/16 14:47:53;;;;;;;20.63;8.50;;;10.00;99.10;;;;;;5135756;27;37114;-57
2021/12/16 14:50:27;;;;;;;19.83;9.32;;;10.10;99.10;;;;;;5137260;27;38760;-57
2021/12/16 14:52:57;;;;;;;21.45;9.00;;;10.00;99.00;;;;;;5135075;27;35315;-56
2021/12/16 14:55:26;;;;;;;21.77;10.32;;;10.00;99.00;;;;;;5135131;27;38039;-57
2021/12/16 14:57:56;;;;;;;19.85;8.38;;;10.00;99.00;;;;;;5134894;27;38567;-57
2021/12/16 15:00:29;;;;;;;19.10;8.70;;;10.00;99.00;;;;;;5134214;27;35665;-57
2021/12/16 15:03:01;;;;;;;;;;;10.00;99.00;;;;;;5132824;27;38856;-57
2021/12/16 15:05:32;;;;;;;20.48;8.60;;;9.90;99.00;;;;;;5133429;27;40334;-57
2021/12/16 15:08:08;;;;;;;17.70;8.55;;;10.00;99.00;;;;;;5134870;27;37249;-57
2021/12/16 15:10:36;;;;;;;16.85;8.07;;;9.90;98.90;;;;;;5135468;27;38773;-57
2021/12/16 15:13:10;;;;;;;23.08;7.95;;;9.90;98.90;;;;;;5135458;27;35282;-57
2021/12/16 15:15:46;;;;;;;15.82;7.70;;;9.90;98.90;;;;;;5134937;27;37725;-57
2021/12/16 15:40:54;;;;;;;18.73;10.45;;;9.90;99.00;;;;;;5131105;27;36538;-57
2021/12/16 15:43:22;;;;;;;20.55;10.45;;;9.80;99.00;;;;;;5135752;27;38006;-57
2021/12/16 15:45:52;;;;;;;22.40;10.90;;;9.90;99.00;;;;;;5130927;27;36841;-57
2021/12/16 15:48:22;;;;;;;22.23;10.88;;;9.80;99.00;;;;;;5121108;27;36267;-57
2021/12/16 15:50:52;;;;;;;21.42;9.88;;;9.80;99.00;;;;;;5122099;27;37085;-57
2021/12/16 15:53:24;;;;;;;19.40;9.82;;;9.80;99.00;;;;;;5121802;27;37532;-57
2021/12/16 15:55:56;;;;;;;20.27;10.13;;;9.80;99.00;;;;;;5121249;27;36342;-57
2021/12/16 15:58:28;;;;;;;25.20;11.68;;;9.80;99.10;;;;;;5119936;27;38339;-57
2021/12/16 16:00:58;;;;;;;21.52;10.88;;;9.80;99.30;;;;;;5121179;27;37120;-57
2021/12/16 16:03:28;;;;;;;23.73;12.00;;;9.80;99.10;;;;;;5121638;27;37444;-57
2021/12/16 16:05:58;;;;;;;26.73;13.10;;;9.80;99.10;;;;;;5122132;27;37513;-57
2021/12/16 16:08:29;;;;;;;23.60;12.55;;;9.80;99.10;;;;;;5122546;27;37263;-57
2021/12/16 16:11:01;;;;;;;23.60;13.05;;;9.80;99.10;;;;;;5122191;27;38483;-57